sensor_id;sensor_type;location;lat;lon;timestamp;P1;durP1;ratioP1;P2;durP2;ratioP2
18196;SDS011;9224;52.422;13.024;2022-09-04T00:01:33;2.80;;;2.40;;
18196;SDS011;9224;52.422;13.024;2022-09-04T00:04:06;3.90;;;2.47;;
18196;SDS011;9224;52.422;13.024;2022-09-04T00:06:37;2.65;;;2.45;;
18196;SDS011;9224;52.422;13.024;2022-09-04T00:09:08;4.78;;;2.90;;
18196;SDS011;9224;52.422;13.024;2022-09-04T00:11:40;3.70;;;2.75;;
18196;SDS011;9224;52.422;13.024;2022-09-04T00:14:11;3.72;;;2.70;;
18196;SDS011;9224;52.422;13.024;2022-09-04T00:16:43;4.13;;;2.72;;
18196;SDS011;9224;52.422;13.024;2022-09-04T00:19:15;4.90;;;2.83;;
18196;SDS011;9224;52.422;13.024;2022-09-04T00:21:47;3.78;;;2.70;;
18196;SDS011;9224;52.422;13.024;2022-09-04T00:24:16;6.18;;;2.72;;
18196;SDS011;9224;52.422;13.024;2022-09-04T00:26:46;4.38;;;2.75;;
18196;SDS011;9224;52.422;13.024;2022-09-04T00:29:19;3.88;;;2.50;;
18196;SDS011;9224;52.422;13.024;2022-09-04T00:31:51;5.18;;;2.78;;
18196;SDS011;9224;52.422;13.024;2022-09-04T00:34:25;3.53;;;2.80;;
18196;SDS011;9224;52.422;13.024;2022-09-04T00:37:13;3.15;;;2.58;;
18196;SDS011;9224;52.422;13.024;2022-09-04T00:39:42;4.10;;;2.88;;
18196;SDS011;9224;52.422;13.024;2022-09-04T00:42:15;3.25;;;2.55;;
18196;SDS011;9224;52.422;13.024;2022-09-04T00:44:54;4.17;;;2.70;;
18196;SDS011;9224;52.422;13.024;2022-09-04T00:47:33;3.67;;;2.65;;
18196;SDS011;9224;52.422;13.024;2022-09-04T00:50:16;3.22;;;2.40;;
18196;SDS011;9224;52.422;13.024;2022-09-04T00:53:03;4.97;;;2.60;;
18196;SDS011;9224;52.422;13.024;2022-09-04T00:55:48;3.67;;;2.60;;
18196;SDS011;9224;52.422;13.024;2022-09-04T00:58:23;3.20;;;2.60;;
18196;SDS011;9224;52.422;13.024;2022-09-04T01:00:57;3.90;;;2.65;;
18196;SDS011;9224;52.422;13.024;2022-09-04T01:03:37;3.88;;;2.45;;
18196;SDS011;9224;52.422;13.024;2022-09-04T01:08:59;3.88;;;2.45;;
18196;SDS011;9224;52.422;13.024;2022-09-04T01:11:33;4.10;;;2.53;;
18196;SDS011;9224;52.422;13.024;2022-09-04T01:14:10;3.35;;;2.33;;
18196;SDS011;9224;52.422;13.024;2022-09-04T01:16:40;2.80;;;2.50;;
18196;SDS011;9224;52.422;13.024;2022-09-04T01:19:18;4.45;;;2.38;;
18196;SDS011;9224;52.422;13.024;2022-09-04T01:21:56;5.75;;;2.70;;
18196;SDS011;9224;52.422;13.024;2022-09-04T01:24:33;3.13;;;2.45;;
18196;SDS011;9224;52.422;13.024;2022-09-04T01:27:08;2.75;;;2.28;;
18196;SDS011;9224;52.422;13.024;2022-09-04T01:29:40;4.78;;;2.90;;
18196;SDS011;9224;52.422;13.024;2022-09-04T01:32:14;3.67;;;2.65;;
18196;SDS011;9224;52.422;13.024;2022-09-04T01:34:49;2.95;;;2.58;;
18196;SDS011;9224;52.422;13.024;2022-09-04T01:37:29;4.63;;;2.90;;
18196;SDS011;9224;52.422;13.024;2022-09-04T01:40:07;3.15;;;2.40;;
18196;SDS011;9224;52.422;13.024;2022-09-04T01:42:45;3.42;;;2.70;;
18196;SDS011;9224;52.422;13.024;2022-09-04T01:45:16;2.80;;;2.60;;
18196;SDS011;9224;52.422;13.024;2022-09-04T01:47:48;3.25;;;2.75;;
18196;SDS011;9224;52.422;13.024;2022-09-04T01:50:17;4.10;;;2.60;;
18196;SDS011;9224;52.422;13.024;2022-09-04T01:52:47;3.08;;;2.63;;
18196;SDS011;9224;52.422;13.024;2022-09-04T01:55:17;2.75;;;2.45;;
18196;SDS011;9224;52.422;13.024;2022-09-04T01:58:01;3.85;;;2.35;;
18196;SDS011;9224;52.422;13.024;2022-09-04T02:00:35;3.00;;;2.70;;
18196;SDS011;9224;52.422;13.024;2022-09-04T02:03:09;3.35;;;2.90;;
18196;SDS011;9224;52.422;13.024;2022-09-04T02:05:41;3.45;;;2.50;;
18196;SDS011;9224;52.422;13.024;2022-09-04T02:08:20;3.50;;;2.67;;
18196;SDS011;9224;52.422;13.024;2022-09-04T02:10:55;2.80;;;2.50;;
18196;SDS011;9224;52.422;13.024;2022-09-04T02:13:27;3.17;;;2.50;;
18196;SDS011;9224;52.422;13.024;2022-09-04T02:16:03;3.75;;;2.80;;
18196;SDS011;9224;52.422;13.024;2022-09-04T02:18:37;4.47;;;2.88;;
18196;SDS011;9224;52.422;13.024;2022-09-04T02:21:11;3.33;;;2.60;;
18196;SDS011;9224;52.422;13.024;2022-09-04T02:23:42;3.92;;;2.50;;
18196;SDS011;9224;52.422;13.024;2022-09-04T02:26:11;3.25;;;2.60;;
18196;SDS011;9224;52.422;13.024;2022-09-04T02:28:46;3.88;;;2.47;;
18196;SDS011;9224;52.422;13.024;2022-09-04T02:31:20;4.00;;;2.60;;
18196;SDS011;9224;52.422;13.024;2022-09-04T02:34:14;3.95;;;2.47;;
18196;SDS011;9224;52.422;13.024;2022-09-04T02:37:02;3.05;;;2.75;;
18196;SDS011;9224;52.422;13.024;2022-09-04T02:39:55;3.22;;;2.53;;
18196;SDS011;9224;52.422;13.024;2022-09-04T02:42:48;4.13;;;2.80;;
18196;SDS011;9224;52.422;13.024;2022-09-04T02:45:44;3.72;;;2.70;;
18196;SDS011;9224;52.422;13.024;2022-09-04T02:48:36;4.00;;;2.67;;
18196;SDS011;9224;52.422;13.024;2022-09-04T02:51:31;3.30;;;2.50;;
18196;SDS011;9224;52.422;13.024;2022-09-04T02:54:31;5.22;;;2.70;;
18196;SDS011;9224;52.422;13.024;2022-09-04T02:57:24;4.28;;;2.90;;
18196;SDS011;9224;52.422;13.024;2022-09-04T03:00:17;3.25;;;2.72;;
18196;SDS011;9224;52.422;13.024;2022-09-04T03:03:06;4.33;;;2.47;;
18196;SDS011;9224;52.422;13.024;2022-09-04T03:05:55;3.30;;;2.78;;
18196;SDS011;9224;52.422;13.024;2022-09-04T03:08:46;4.57;;;2.70;;
18196;SDS011;9224;52.422;13.024;2022-09-04T03:11:34;3.20;;;2.65;;
18196;SDS011;9224;52.422;13.024;2022-09-04T03:14:21;2.55;;;2.35;;
18196;SDS011;9224;52.422;13.024;2022-09-04T03:16:53;2.67;;;2.40;;
18196;SDS011;9224;52.422;13.024;2022-09-04T03:19:28;3.80;;;2.65;;
18196;SDS011;9224;52.422;13.024;2022-09-04T03:21:58;3.33;;;2.60;;
18196;SDS011;9224;52.422;13.024;2022-09-04T03:24:29;3.78;;;2.38;;
18196;SDS011;9224;52.422;13.024;2022-09-04T03:27:00;2.83;;;2.47;;
18196;SDS011;9224;52.422;13.024;2022-09-04T03:29:29;3.38;;;2.45;;
18196;SDS011;9224;52.422;13.024;2022-09-04T03:32:03;2.80;;;2.33;;
18196;SDS011;9224;52.422;13.024;2022-09-04T03:34:36;3.58;;;2.63;;
18196;SDS011;9224;52.422;13.024;2022-09-04T03:37:10;3.03;;;2.50;;
18196;SDS011;9224;52.422;13.024;2022-09-04T03:39:45;2.97;;;2.40;;
18196;SDS011;9224;52.422;13.024;2022-09-04T03:42:21;4.10;;;2.40;;
18196;SDS011;9224;52.422;13.024;2022-09-04T03:44:57;3.15;;;2.30;;
18196;SDS011;9224;52.422;13.024;2022-09-04T03:47:32;2.70;;;2.50;;
18196;SDS011;9224;52.422;13.024;2022-09-04T03:50:08;3.28;;;2.45;;
18196;SDS011;9224;52.422;13.024;2022-09-04T03:52:43;2.97;;;2.63;;
18196;SDS011;9224;52.422;13.024;2022-09-04T03:58:04;3.63;;;2.70;;
18196;SDS011;9224;52.422;13.024;2022-09-04T04:00:40;3.25;;;2.47;;
18196;SDS011;9224;52.422;13.024;2022-09-04T04:03:22;2.90;;;2.55;;
18196;SDS011;9224;52.422;13.024;2022-09-04T04:06:00;3.80;;;2.47;;
18196;SDS011;9224;52.422;13.024;2022-09-04T04:08:37;2.50;;;2.30;;
18196;SDS011;9224;52.422;13.024;2022-09-04T04:11:22;3.35;;;2.20;;
18196;SDS011;9224;52.422;13.024;2022-09-04T04:14:06;3.70;;;2.40;;
18196;SDS011;9224;52.422;13.024;2022-09-04T04:16:45;3.13;;;2.78;;
18196;SDS011;9224;52.422;13.024;2022-09-04T04:19:25;3.70;;;2.83;;
18196;SDS011;9224;52.422;13.024;2022-09-04T04:22:11;2.70;;;2.43;;
18196;SDS011;9224;52.422;13.024;2022-09-04T04:24:50;4.20;;;2.47;;
18196;SDS011;9224;52.422;13.024;2022-09-04T04:27:32;2.95;;;2.40;;
18196;SDS011;9224;52.422;13.024;2022-09-04T04:30:06;2.97;;;2.43;;
18196;SDS011;9224;52.422;13.024;2022-09-04T04:32:54;2.58;;;2.38;;
18196;SDS011;9224;52.422;13.024;2022-09-04T04:35:32;2.80;;;2.60;;
18196;SDS011;9224;52.422;13.024;2022-09-04T04:40:58;2.45;;;2.25;;
18196;SDS011;9224;52.422;13.024;2022-09-04T04:43:36;3.13;;;2.45;;
18196;SDS011;9224;52.422;13.024;2022-09-04T04:46:12;2.53;;;2.33;;
18196;SDS011;9224;52.422;13.024;2022-09-04T04:48:58;2.55;;;2.35;;
18196;SDS011;9224;52.422;13.024;2022-09-04T04:51:37;2.28;;;2.13;;
18196;SDS011;9224;52.422;13.024;2022-09-04T04:54:18;4.00;;;2.70;;
18196;SDS011;9224;52.422;13.024;2022-09-04T04:56:53;2.70;;;1.98;;
18196;SDS011;9224;52.422;13.024;2022-09-04T04:59:24;3.00;;;2.38;;
18196;SDS011;9224;52.422;13.024;2022-09-04T05:01:57;4.00;;;2.42;;
18196;SDS011;9224;52.422;13.024;2022-09-04T05:04:34;2.90;;;2.50;;
18196;SDS011;9224;52.422;13.024;2022-09-04T05:07:09;2.65;;;2.45;;
18196;SDS011;9224;52.422;13.024;2022-09-04T05:09:45;2.78;;;2.40;;
18196;SDS011;9224;52.422;13.024;2022-09-04T05:12:15;3.90;;;2.40;;
18196;SDS011;9224;52.422;13.024;2022-09-04T05:14:47;4.00;;;2.30;;
18196;SDS011;9224;52.422;13.024;2022-09-04T05:17:21;3.25;;;2.50;;
18196;SDS011;9224;52.422;13.024;2022-09-04T05:19:58;3.88;;;2.47;;
18196;SDS011;9224;52.422;13.024;2022-09-04T05:22:41;4.32;;;2.47;;
18196;SDS011;9224;52.422;13.024;2022-09-04T05:25:14;3.78;;;2.15;;
18196;SDS011;9224;52.422;13.024;2022-09-04T05:27:47;3.17;;;2.40;;
18196;SDS011;9224;52.422;13.024;2022-09-04T05:30:19;3.33;;;2.47;;
18196;SDS011;9224;52.422;13.024;2022-09-04T05:32:50;2.72;;;2.20;;
18196;SDS011;9224;52.422;13.024;2022-09-04T05:35:22;3.47;;;2.67;;
18196;SDS011;9224;52.422;13.024;2022-09-04T05:37:54;2.83;;;1.95;;
18196;SDS011;9224;52.422;13.024;2022-09-04T05:40:26;3.95;;;2.08;;
18196;SDS011;9224;52.422;13.024;2022-09-04T05:42:58;3.45;;;2.60;;
18196;SDS011;9224;52.422;13.024;2022-09-04T05:45:33;3.88;;;2.42;;
18196;SDS011;9224;52.422;13.024;2022-09-04T05:48:08;2.30;;;2.10;;
18196;SDS011;9224;52.422;13.024;2022-09-04T05:50:44;2.78;;;1.83;;
18196;SDS011;9224;52.422;13.024;2022-09-04T05:53:25;2.90;;;2.13;;
18196;SDS011;9224;52.422;13.024;2022-09-04T05:56:37;2.75;;;2.35;;
18196;SDS011;9224;52.422;13.024;2022-09-04T05:59:16;2.83;;;2.30;;
18196;SDS011;9224;52.422;13.024;2022-09-04T06:02:09;2.92;;;2.40;;
18196;SDS011;9224;52.422;13.024;2022-09-04T06:04:54;2.35;;;2.15;;
18196;SDS011;9224;52.422;13.024;2022-09-04T06:07:31;3.15;;;2.10;;
18196;SDS011;9224;52.422;13.024;2022-09-04T06:10:03;2.95;;;2.20;;
18196;SDS011;9224;52.422;13.024;2022-09-04T06:15:32;4.07;;;2.25;;
18196;SDS011;9224;52.422;13.024;2022-09-04T06:21:14;3.85;;;2.40;;
18196;SDS011;9224;52.422;13.024;2022-09-04T06:23:57;2.42;;;2.20;;
18196;SDS011;9224;52.422;13.024;2022-09-04T06:29:17;2.90;;;2.30;;
18196;SDS011;9224;52.422;13.024;2022-09-04T06:34:51;2.53;;;2.33;;
18196;SDS011;9224;52.422;13.024;2022-09-04T06:37:27;3.33;;;2.30;;
18196;SDS011;9224;52.422;13.024;2022-09-04T06:40:07;4.03;;;2.65;;
18196;SDS011;9224;52.422;13.024;2022-09-04T06:42:46;2.72;;;2.53;;
18196;SDS011;9224;52.422;13.024;2022-09-04T06:45:33;2.97;;;2.50;;
18196;SDS011;9224;52.422;13.024;2022-09-04T06:48:07;2.70;;;2.50;;
18196;SDS011;9224;52.422;13.024;2022-09-04T06:50:44;2.75;;;2.47;;
18196;SDS011;9224;52.422;13.024;2022-09-04T06:53:20;2.60;;;2.40;;
18196;SDS011;9224;52.422;13.024;2022-09-04T06:55:56;2.83;;;2.63;;
18196;SDS011;9224;52.422;13.024;2022-09-04T06:58:40;3.90;;;2.53;;
18196;SDS011;9224;52.422;13.024;2022-09-04T07:01:14;3.42;;;2.83;;
18196;SDS011;9224;52.422;13.024;2022-09-04T07:03:46;3.85;;;3.22;;
18196;SDS011;9224;52.422;13.024;2022-09-04T07:06:21;2.75;;;2.55;;
18196;SDS011;9224;52.422;13.024;2022-09-04T07:08:53;4.33;;;3.13;;
18196;SDS011;9224;52.422;13.024;2022-09-04T07:11:28;4.05;;;3.05;;
18196;SDS011;9224;52.422;13.024;2022-09-04T07:14:15;3.42;;;2.78;;
18196;SDS011;9224;52.422;13.024;2022-09-04T07:16:58;3.88;;;2.97;;
18196;SDS011;9224;52.422;13.024;2022-09-04T07:19:41;3.35;;;2.80;;
18196;SDS011;9224;52.422;13.024;2022-09-04T07:25:11;3.38;;;3.08;;
18196;SDS011;9224;52.422;13.024;2022-09-04T07:27:47;3.20;;;2.90;;
18196;SDS011;9224;52.422;13.024;2022-09-04T07:30:21;3.50;;;2.92;;
18196;SDS011;9224;52.422;13.024;2022-09-04T07:32:53;3.20;;;2.90;;
18196;SDS011;9224;52.422;13.024;2022-09-04T07:35:23;3.60;;;3.20;;
18196;SDS011;9224;52.422;13.024;2022-09-04T07:37:56;3.38;;;3.08;;
18196;SDS011;9224;52.422;13.024;2022-09-04T07:40:25;4.05;;;3.20;;
18196;SDS011;9224;52.422;13.024;2022-09-04T07:42:56;3.20;;;2.90;;
18196;SDS011;9224;52.422;13.024;2022-09-04T07:45:28;3.50;;;3.00;;
18196;SDS011;9224;52.422;13.024;2022-09-04T07:48:01;3.22;;;3.03;;
18196;SDS011;9224;52.422;13.024;2022-09-04T07:50:34;6.07;;;3.45;;
18196;SDS011;9224;52.422;13.024;2022-09-04T07:53:13;3.72;;;3.42;;
18196;SDS011;9224;52.422;13.024;2022-09-04T07:55:47;4.55;;;3.50;;
18196;SDS011;9224;52.422;13.024;2022-09-04T07:58:22;3.30;;;3.00;;
18196;SDS011;9224;52.422;13.024;2022-09-04T08:01:01;4.00;;;3.30;;
18196;SDS011;9224;52.422;13.024;2022-09-04T08:03:46;3.90;;;3.47;;
18196;SDS011;9224;52.422;13.024;2022-09-04T08:06:21;4.03;;;3.45;;
18196;SDS011;9224;52.422;13.024;2022-09-04T08:08:51;4.65;;;3.30;;
18196;SDS011;9224;52.422;13.024;2022-09-04T08:14:29;4.00;;;3.63;;
18196;SDS011;9224;52.422;13.024;2022-09-04T08:17:22;3.97;;;3.50;;
18196;SDS011;9224;52.422;13.024;2022-09-04T08:20:00;4.50;;;3.40;;
18196;SDS011;9224;52.422;13.024;2022-09-04T08:22:31;3.78;;;3.17;;
18196;SDS011;9224;52.422;13.024;2022-09-04T08:25:06;5.03;;;3.60;;
18196;SDS011;9224;52.422;13.024;2022-09-04T08:27:45;4.50;;;3.42;;
18196;SDS011;9224;52.422;13.024;2022-09-04T08:30:18;3.92;;;3.53;;
18196;SDS011;9224;52.422;13.024;2022-09-04T08:35:47;4.22;;;3.60;;
18196;SDS011;9224;52.422;13.024;2022-09-04T08:38:25;4.20;;;3.40;;
18196;SDS011;9224;52.422;13.024;2022-09-04T08:41:20;3.70;;;3.40;;
18196;SDS011;9224;52.422;13.024;2022-09-04T08:44:12;3.88;;;3.40;;
18196;SDS011;9224;52.422;13.024;2022-09-04T08:47:17;3.90;;;3.50;;
18196;SDS011;9224;52.422;13.024;2022-09-04T08:53:06;3.72;;;3.42;;
18196;SDS011;9224;52.422;13.024;2022-09-04T08:55:46;3.70;;;3.40;;
18196;SDS011;9224;52.422;13.024;2022-09-04T08:58:48;3.83;;;3.43;;
18196;SDS011;9224;52.422;13.024;2022-09-04T09:01:39;3.50;;;3.20;;
18196;SDS011;9224;52.422;13.024;2022-09-04T09:07:49;4.30;;;3.60;;
18196;SDS011;9224;52.422;13.024;2022-09-04T09:10:38;3.60;;;3.20;;
18196;SDS011;9224;52.422;13.024;2022-09-04T09:13:30;4.20;;;3.50;;
18196;SDS011;9224;52.422;13.024;2022-09-04T09:16:16;3.58;;;3.28;;
18196;SDS011;9224;52.422;13.024;2022-09-04T09:18:51;3.60;;;3.30;;
18196;SDS011;9224;52.422;13.024;2022-09-04T09:21:30;3.77;;;3.33;;
18196;SDS011;9224;52.422;13.024;2022-09-04T09:24:10;3.80;;;3.50;;
18196;SDS011;9224;52.422;13.024;2022-09-04T09:26:50;4.15;;;3.30;;
18196;SDS011;9224;52.422;13.024;2022-09-04T09:29:30;3.67;;;3.38;;
18196;SDS011;9224;52.422;13.024;2022-09-04T09:32:18;4.55;;;3.38;;
18196;SDS011;9224;52.422;13.024;2022-09-04T09:35:31;3.83;;;3.42;;
18196;SDS011;9224;52.422;13.024;2022-09-04T09:38:25;4.78;;;3.50;;
18196;SDS011;9224;52.422;13.024;2022-09-04T09:47:22;4.27;;;3.70;;
18196;SDS011;9224;52.422;13.024;2022-09-04T09:50:18;3.28;;;3.03;;
18196;SDS011;9224;52.422;13.024;2022-09-04T09:58:53;3.50;;;3.20;;
18196;SDS011;9224;52.422;13.024;2022-09-04T10:02:00;3.50;;;3.20;;
18196;SDS011;9224;52.422;13.024;2022-09-04T10:04:50;3.50;;;3.20;;
18196;SDS011;9224;52.422;13.024;2022-09-04T10:07:37;4.50;;;3.35;;
18196;SDS011;9224;52.422;13.024;2022-09-04T10:13:43;3.60;;;3.30;;
18196;SDS011;9224;52.422;13.024;2022-09-04T10:16:27;4.47;;;3.22;;
18196;SDS011;9224;52.422;13.024;2022-09-04T10:19:24;4.03;;;3.40;;
18196;SDS011;9224;52.422;13.024;2022-09-04T10:31:02;8.27;;;3.95;;
18196;SDS011;9224;52.422;13.024;2022-09-04T10:33:43;5.25;;;3.60;;
18196;SDS011;9224;52.422;13.024;2022-09-04T10:36:22;4.10;;;3.42;;
18196;SDS011;9224;52.422;13.024;2022-09-04T10:39:00;7.35;;;3.60;;
18196;SDS011;9224;52.422;13.024;2022-09-04T10:42:00;4.63;;;2.78;;
18196;SDS011;9224;52.422;13.024;2022-09-04T10:44:39;3.67;;;3.08;;
18196;SDS011;9224;52.422;13.024;2022-09-04T10:47:34;4.43;;;2.83;;
18196;SDS011;9224;52.422;13.024;2022-09-04T10:50:16;4.45;;;2.85;;
18196;SDS011;9224;52.422;13.024;2022-09-04T10:53:01;5.30;;;3.10;;
18196;SDS011;9224;52.422;13.024;2022-09-04T10:56:11;3.58;;;2.90;;
18196;SDS011;9224;52.422;13.024;2022-09-04T10:58:54;4.20;;;2.70;;
18196;SDS011;9224;52.422;13.024;2022-09-04T11:01:50;2.53;;;2.33;;
18196;SDS011;9224;52.422;13.024;2022-09-04T11:07:48;3.85;;;2.80;;
18196;SDS011;9224;52.422;13.024;2022-09-04T11:10:26;3.40;;;2.63;;
18196;SDS011;9224;52.422;13.024;2022-09-04T11:18:41;3.20;;;2.90;;
18196;SDS011;9224;52.422;13.024;2022-09-04T11:21:47;3.20;;;2.63;;
18196;SDS011;9224;52.422;13.024;2022-09-04T11:24:37;2.67;;;2.47;;
18196;SDS011;9224;52.422;13.024;2022-09-04T11:27:36;2.35;;;2.20;;
18196;SDS011;9224;52.422;13.024;2022-09-04T11:30:26;2.45;;;2.25;;
18196;SDS011;9224;52.422;13.024;2022-09-04T11:41:57;3.78;;;2.63;;
18196;SDS011;9224;52.422;13.024;2022-09-04T11:44:47;2.75;;;2.55;;
18196;SDS011;9224;52.422;13.024;2022-09-04T11:47:41;2.58;;;2.38;;
18196;SDS011;9224;52.422;13.024;2022-09-04T11:53:15;3.20;;;3.00;;
18196;SDS011;9224;52.422;13.024;2022-09-04T11:58:57;4.00;;;2.60;;
18196;SDS011;9224;52.422;13.024;2022-09-04T12:01:39;2.70;;;2.50;;
18196;SDS011;9224;52.422;13.024;2022-09-04T12:07:20;2.70;;;2.50;;
18196;SDS011;9224;52.422;13.024;2022-09-04T12:12:58;3.42;;;2.72;;
18196;SDS011;9224;52.422;13.024;2022-09-04T12:15:58;3.10;;;2.90;;
18196;SDS011;9224;52.422;13.024;2022-09-04T12:19:08;3.00;;;2.70;;
18196;SDS011;9224;52.422;13.024;2022-09-04T12:22:02;2.83;;;2.53;;
18196;SDS011;9224;52.422;13.024;2022-09-04T12:24:58;2.80;;;2.47;;
18196;SDS011;9224;52.422;13.024;2022-09-04T12:30:38;4.00;;;2.40;;
18196;SDS011;9224;52.422;13.024;2022-09-04T12:33:30;3.63;;;2.70;;
18196;SDS011;9224;52.422;13.024;2022-09-04T12:39:17;2.97;;;2.60;;
18196;SDS011;9224;52.422;13.024;2022-09-04T12:41:53;3.35;;;2.53;;
18196;SDS011;9224;52.422;13.024;2022-09-04T12:44:25;2.55;;;2.35;;
18196;SDS011;9224;52.422;13.024;2022-09-04T12:47:03;2.67;;;2.47;;
18196;SDS011;9224;52.422;13.024;2022-09-04T12:49:47;2.88;;;2.42;;
18196;SDS011;9224;52.422;13.024;2022-09-04T12:52:25;3.35;;;2.50;;
18196;SDS011;9224;52.422;13.024;2022-09-04T12:55:04;4.60;;;2.60;;
18196;SDS011;9224;52.422;13.024;2022-09-04T12:57:38;2.70;;;2.37;;
18196;SDS011;9224;52.422;13.024;2022-09-04T13:00:11;2.63;;;2.50;;
18196;SDS011;9224;52.422;13.024;2022-09-04T13:02:44;2.97;;;2.70;;
18196;SDS011;9224;52.422;13.024;2022-09-04T13:05:28;2.92;;;2.50;;
18196;SDS011;9224;52.422;13.024;2022-09-04T13:07:58;2.80;;;2.50;;
18196;SDS011;9224;52.422;13.024;2022-09-04T13:10:33;4.00;;;2.80;;
18196;SDS011;9224;52.422;13.024;2022-09-04T13:13:05;4.47;;;2.90;;
18196;SDS011;9224;52.422;13.024;2022-09-04T13:15:41;2.88;;;2.58;;
18196;SDS011;9224;52.422;13.024;2022-09-04T13:18:18;3.13;;;2.90;;
18196;SDS011;9224;52.422;13.024;2022-09-04T13:20:52;2.85;;;2.65;;
18196;SDS011;9224;52.422;13.024;2022-09-04T13:23:26;2.70;;;2.50;;
18196;SDS011;9224;52.422;13.024;2022-09-04T13:26:09;3.03;;;2.80;;
18196;SDS011;9224;52.422;13.024;2022-09-04T13:28:46;3.30;;;3.00;;
18196;SDS011;9224;52.422;13.024;2022-09-04T13:31:30;3.00;;;2.80;;
18196;SDS011;9224;52.422;13.024;2022-09-04T13:34:03;3.33;;;2.90;;
18196;SDS011;9224;52.422;13.024;2022-09-04T13:36:39;3.80;;;2.80;;
18196;SDS011;9224;52.422;13.024;2022-09-04T13:39:20;2.97;;;2.78;;
18196;SDS011;9224;52.422;13.024;2022-09-04T13:42:01;2.88;;;2.60;;
18196;SDS011;9224;52.422;13.024;2022-09-04T13:47:22;2.97;;;2.60;;
18196;SDS011;9224;52.422;13.024;2022-09-04T13:49:49;2.90;;;2.70;;
18196;SDS011;9224;52.422;13.024;2022-09-04T13:52:19;3.60;;;2.90;;
18196;SDS011;9224;52.422;13.024;2022-09-04T13:54:52;3.00;;;2.80;;
18196;SDS011;9224;52.422;13.024;2022-09-04T13:57:25;3.42;;;2.78;;
18196;SDS011;9224;52.422;13.024;2022-09-04T13:59:53;3.17;;;2.67;;
18196;SDS011;9224;52.422;13.024;2022-09-04T14:02:23;2.90;;;2.70;;
18196;SDS011;9224;52.422;13.024;2022-09-04T14:04:52;3.47;;;2.45;;
18196;SDS011;9224;52.422;13.024;2022-09-04T14:07:22;2.55;;;2.38;;
18196;SDS011;9224;52.422;13.024;2022-09-04T14:09:51;2.75;;;2.55;;
18196;SDS011;9224;52.422;13.024;2022-09-04T14:15:25;2.85;;;2.60;;
18196;SDS011;9224;52.422;13.024;2022-09-04T14:18:14;2.60;;;2.40;;
18196;SDS011;9224;52.422;13.024;2022-09-04T14:20:49;3.10;;;2.70;;
18196;SDS011;9224;52.422;13.024;2022-09-04T14:23:23;3.88;;;2.65;;
18196;SDS011;9224;52.422;13.024;2022-09-04T14:25:56;2.95;;;2.70;;
18196;SDS011;9224;52.422;13.024;2022-09-04T14:28:29;3.72;;;2.67;;
18196;SDS011;9224;52.422;13.024;2022-09-04T14:31:03;3.53;;;2.60;;
18196;SDS011;9224;52.422;13.024;2022-09-04T14:33:36;3.08;;;2.67;;
18196;SDS011;9224;52.422;13.024;2022-09-04T14:36:11;3.60;;;2.87;;
18196;SDS011;9224;52.422;13.024;2022-09-04T14:41:29;3.33;;;2.58;;
18196;SDS011;9224;52.422;13.024;2022-09-04T14:44:06;3.05;;;2.75;;
18196;SDS011;9224;52.422;13.024;2022-09-04T14:46:42;3.25;;;2.80;;
18196;SDS011;9224;52.422;13.024;2022-09-04T14:49:14;3.10;;;2.90;;
18196;SDS011;9224;52.422;13.024;2022-09-04T14:51:42;3.13;;;2.88;;
18196;SDS011;9224;52.422;13.024;2022-09-04T14:54:12;2.83;;;2.63;;
18196;SDS011;9224;52.422;13.024;2022-09-04T14:56:41;2.97;;;2.63;;
18196;SDS011;9224;52.422;13.024;2022-09-04T14:59:12;2.80;;;2.60;;
18196;SDS011;9224;52.422;13.024;2022-09-04T15:01:57;3.78;;;2.70;;
18196;SDS011;9224;52.422;13.024;2022-09-04T15:04:29;3.05;;;2.78;;
18196;SDS011;9224;52.422;13.024;2022-09-04T15:07:00;3.10;;;2.80;;
18196;SDS011;9224;52.422;13.024;2022-09-04T15:09:29;3.08;;;2.78;;
18196;SDS011;9224;52.422;13.024;2022-09-04T15:12:11;2.90;;;2.60;;
18196;SDS011;9224;52.422;13.024;2022-09-04T15:14:42;2.70;;;2.50;;
18196;SDS011;9224;52.422;13.024;2022-09-04T15:17:10;3.00;;;2.80;;
18196;SDS011;9224;52.422;13.024;2022-09-04T15:19:40;2.80;;;2.60;;
18196;SDS011;9224;52.422;13.024;2022-09-04T15:22:11;3.55;;;3.00;;
18196;SDS011;9224;52.422;13.024;2022-09-04T15:24:46;2.83;;;2.63;;
18196;SDS011;9224;52.422;13.024;2022-09-04T15:27:16;3.40;;;3.10;;
18196;SDS011;9224;52.422;13.024;2022-09-04T15:29:53;3.25;;;2.80;;
18196;SDS011;9224;52.422;13.024;2022-09-04T15:32:29;2.65;;;2.45;;
18196;SDS011;9224;52.422;13.024;2022-09-04T15:35:10;3.00;;;2.70;;
18196;SDS011;9224;52.422;13.024;2022-09-04T15:37:41;3.05;;;2.65;;
18196;SDS011;9224;52.422;13.024;2022-09-04T15:40:12;3.53;;;2.60;;
18196;SDS011;9224;52.422;13.024;2022-09-04T15:42:43;2.83;;;2.63;;
18196;SDS011;9224;52.422;13.024;2022-09-04T15:45:17;3.08;;;2.88;;
18196;SDS011;9224;52.422;13.024;2022-09-04T15:47:53;2.80;;;2.60;;
18196;SDS011;9224;52.422;13.024;2022-09-04T15:50:35;2.88;;;2.67;;
18196;SDS011;9224;52.422;13.024;2022-09-04T15:53:11;2.83;;;2.47;;
18196;SDS011;9224;52.422;13.024;2022-09-04T15:55:40;3.00;;;2.70;;
18196;SDS011;9224;52.422;13.024;2022-09-04T15:58:13;2.83;;;2.63;;
18196;SDS011;9224;52.422;13.024;2022-09-04T16:01:04;3.00;;;2.80;;
18196;SDS011;9224;52.422;13.024;2022-09-04T16:03:39;4.03;;;2.90;;
18196;SDS011;9224;52.422;13.024;2022-09-04T16:06:14;3.38;;;2.70;;
18196;SDS011;9224;52.422;13.024;2022-09-04T16:08:45;3.13;;;2.90;;
18196;SDS011;9224;52.422;13.024;2022-09-04T16:11:18;2.90;;;2.70;;
18196;SDS011;9224;52.422;13.024;2022-09-04T16:13:52;3.03;;;2.75;;
18196;SDS011;9224;52.422;13.024;2022-09-04T16:16:22;2.90;;;2.70;;
18196;SDS011;9224;52.422;13.024;2022-09-04T16:18:52;3.55;;;2.75;;
18196;SDS011;9224;52.422;13.024;2022-09-04T16:21:24;3.40;;;3.10;;
18196;SDS011;9224;52.422;13.024;2022-09-04T16:23:54;3.63;;;2.95;;
18196;SDS011;9224;52.422;13.024;2022-09-04T16:26:25;3.25;;;2.85;;
18196;SDS011;9224;52.422;13.024;2022-09-04T16:28:54;4.13;;;2.80;;
18196;SDS011;9224;52.422;13.024;2022-09-04T16:31:25;3.10;;;2.90;;
18196;SDS011;9224;52.422;13.024;2022-09-04T16:33:58;2.90;;;2.70;;
18196;SDS011;9224;52.422;13.024;2022-09-04T16:36:28;4.13;;;3.07;;
18196;SDS011;9224;52.422;13.024;2022-09-04T16:38:59;4.60;;;2.90;;
18196;SDS011;9224;52.422;13.024;2022-09-04T16:41:31;2.95;;;2.75;;
18196;SDS011;9224;52.422;13.024;2022-09-04T16:44:07;3.03;;;2.73;;
18196;SDS011;9224;52.422;13.024;2022-09-04T16:46:43;3.90;;;3.20;;
18196;SDS011;9224;52.422;13.024;2022-09-04T16:49:28;2.92;;;2.72;;
18196;SDS011;9224;52.422;13.024;2022-09-04T16:52:00;3.47;;;3.00;;
18196;SDS011;9224;52.422;13.024;2022-09-04T16:54:32;3.58;;;3.00;;
18196;SDS011;9224;52.422;13.024;2022-09-04T16:57:06;2.90;;;2.60;;
18196;SDS011;9224;52.422;13.024;2022-09-04T16:59:37;3.00;;;2.80;;
18196;SDS011;9224;52.422;13.024;2022-09-04T17:02:13;3.50;;;2.75;;
18196;SDS011;9224;52.422;13.024;2022-09-04T17:04:44;3.20;;;2.90;;
18196;SDS011;9224;52.422;13.024;2022-09-04T17:07:15;2.80;;;2.60;;
18196;SDS011;9224;52.422;13.024;2022-09-04T17:09:46;3.33;;;2.78;;
18196;SDS011;9224;52.422;13.024;2022-09-04T17:12:23;3.00;;;2.80;;
18196;SDS011;9224;52.422;13.024;2022-09-04T17:14:54;3.10;;;2.80;;
18196;SDS011;9224;52.422;13.024;2022-09-04T17:17:26;3.15;;;2.78;;
18196;SDS011;9224;52.422;13.024;2022-09-04T17:20:01;4.13;;;2.95;;
18196;SDS011;9224;52.422;13.024;2022-09-04T17:22:30;2.80;;;2.60;;
18196;SDS011;9224;52.422;13.024;2022-09-04T17:25:03;3.20;;;2.90;;
18196;SDS011;9224;52.422;13.024;2022-09-04T17:27:36;3.40;;;2.90;;
18196;SDS011;9224;52.422;13.024;2022-09-04T17:30:09;3.10;;;2.70;;
18196;SDS011;9224;52.422;13.024;2022-09-04T17:32:44;3.05;;;2.67;;
18196;SDS011;9224;52.422;13.024;2022-09-04T17:35:18;3.30;;;3.00;;
18196;SDS011;9224;52.422;13.024;2022-09-04T17:37:48;4.28;;;3.28;;